x

North Nomad (46184) Wave Buoy

3:00am - Tue 28th Apr 2015 All times are AKDT. -8 hours from GMT.

  • Sig Wave height 8.9ft
  • Peak Period 10s
  • Wind
    4mph, 7mph gusts
  • Sea Temp 45°f
  • Sea Pressure 990.1mb
  • North Nomad
  • North Nomad

More Historic Weather Station data

Upgrade to MSW Pro to gain access to the past 30 days of data for over 8000 Wavebouys and Weather Stations around the globe.

Join Pro

Comparision Forecast

View Surf forecast
   
Tue 04/28 3:00am 9ft 10s 4 7 mph 990.1mb 45f
2:00am 9ft 9s 4 7 mph 990.5mb 45f
1:00am 10ft 10s 4 7 mph 991.6mb 45f
12:00am 10ft 10s 2 4 mph 992.6mb 45f
Mon 04/27 11:00pm 11ft 10s 9
mph
993.9mb 45f
10:00pm 11ft 10s 7 11 mph 994.7mb 45f
9:00pm 11ft 10s 11 13 mph 995.8mb 45f
8:00pm 11.5ft 10s 13 16 mph 996.4mb 45f
7:00pm 11ft 10s 16 20 mph 997.4mb 45f
6:00pm 11ft 9s 18 22 mph 998.2mb 45f
5:00pm 11.5ft 10s 20 22 mph 998.8mb 45f
4:00pm 12ft 11s 20 25 mph 999.5mb 45f
3:00pm 12ft 11s 22 25 mph 1000.2mb 45f
2:00pm 12.5ft 10s 25 29 mph 1000.7mb 45f
1:00pm 13.5ft 11s 25 31 mph 1001mb 45f
12:00pm 14ft 10s 22 31 mph 1001.5mb 45f
11:00am 13.5ft 10s 27 34 mph 1001.6mb 45f
10:00am 12.5ft 10s 25 29 mph 1001.6mb 45f
9:00am 14.5ft 10s 27 34 mph 1001.7mb 45f
8:00am 14ft 11s 27 31 mph 1001.8mb 45f
7:00am 14ft 10s 27 36 mph 1001.9mb 45f
6:00am 13ft 10s 27 34 mph 1002mb 45f
5:00am 12.5ft 10s 27 34 mph 1002.2mb 45f
4:00am 13.5ft 10s 25 31 mph 1002.7mb 45f
3:00am 12.5ft 10s 22 27 mph 1002.9mb 45f
2:00am 13ft 10s 27 31 mph 1003.3mb 45f
1:00am 14ft 10s 27 34 mph 1003.3mb 45f
12:00am 13.5ft 10s 25 29 mph 1003.3mb 45f
Sun 04/26 11:00pm 14ft 10s 25 31 mph 1003.3mb 45f
10:00pm 14ft 10s 22 31 mph 1003.3mb 45f
9:00pm 14ft 10s 22 27 mph 1003.2mb 45f
8:00pm 13ft 11s 22 29 mph 1002.8mb 45f
7:00pm 14ft 10s 22 29 mph 1002.7mb 45f
6:00pm 13ft 10s 25 29 mph 1002.3mb 45f
5:00pm 12.5ft 10s 22 29 mph 1002.1mb 45f
4:00pm 13ft 10s 25 29 mph 1002mb 45f
3:00pm 13ft 10s 22 27 mph 1002mb 45f
2:00pm 13ft 9s 18 22 mph 1001.4mb 45f
1:00pm 14.5ft 10s 22 29 mph 1000.5mb 45f
12:00pm 15ft 10s 25 34 mph 999.5mb 45f
11:00am 14ft 10s 27 31 mph 998.5mb 45f
10:00am 14ft 10s 27 31 mph 997.6mb 45f
9:00am 14ft 10s 25 31 mph 997.1mb 45f
8:00am 14.5ft 10s 22 29 mph 996.2mb 45f
7:00am 15.5ft 11s 22 29 mph 995.4mb 45f
6:00am 14ft 11s 20 25 mph 994.8mb 45f
5:00am 13ft 11s 22 29 mph 994mb 45f
4:00am 14ft 11s 20 25 mph 993.8mb 45f
3:00am 15ft 10s 22 25 mph 993.3mb 45f
2:00am 15ft 10s 22 27 mph 993.1mb 45f
1:00am 15ft 11s 22 31 mph 992.6mb 45f
12:00am 16.5ft 12s 22 27 mph 992.1mb 45f
Sat 04/25 11:00pm 17.5ft 10s 22 31 mph 991.6mb 45f
10:00pm 18ft 11s 25 29 mph 990.9mb 45f
9:00pm 17.5ft 11s 25 31 mph 990.4mb 45f
8:00pm 18.5ft 10s 38 45 mph 989.7mb 45f
7:00pm 15.5ft 10s 40 51 mph 991mb 45f
6:00pm 15.5ft 8s 40 51 mph 992.8mb 45f
5:00pm 12ft 8s 43 54 mph 994.5mb 45f
4:00pm 10ft 7s 38 47 mph 996.5mb 45f
3:00pm 8.5ft 6s 36 43 mph 998.5mb 45f
2:00pm 7ft 6s 34 40 mph 1000.6mb 45f
1:00pm 6.5ft 5s 25 31 mph 1002.6mb 45f
11:00am 6ft 12s 25 29 mph 1004.6mb 45f
10:00am 5.5ft 11s 22 27 mph 1005.5mb 45f
9:00am 5ft 12s 20 27 mph 1006.9mb 45f
8:00am 5ft 13s 20 22 mph 1007.6mb 45f
7:00am 4.5ft 15s 18 20 mph 1008.2mb 45f
6:00am 4.5ft 16s 13 16 mph 1008.9mb 45f
5:00am 4ft 16s 11 13 mph 1009.7mb 45f
4:00am 4ft 8s 11
mph
1010.3mb 46f
3:00am 4.5ft 16s 9 11 mph 1010.9mb 46f
2:00am 4ft 8s 7 9 mph 1011.4mb 46f
1:00am 4.5ft 8s 4
mph
1011.8mb 46f
12:00am 4.5ft 8s 4
mph
1012mb 46f
Fri 04/24 11:00pm 5ft 9s 2
mph
1012.2mb 46f
10:00pm 5ft 9s 2 4 mph 1012.2mb 46f
9:00pm 5ft 8s 4 7 mph 1012.2mb 46f
8:00pm 5ft 10s 4 7 mph 1012.1mb 46f
7:00pm 5ft 8s 7 9 mph 1012.1mb 46f
6:00pm 5ft 9s 9 11 mph 1012.1mb 46f
5:00pm 5ft 9s 9 11 mph 1012mb 46f
4:00pm 5ft 9s 11 13 mph 1011.7mb 46f
3:00pm 5ft 10s 11 13 mph 1011.9mb 46f
2:00pm 5ft 10s 11 13 mph 1011.7mb 46f
1:00pm 5.5ft 9s 11 13 mph 1011.5mb 46f